Main page
METAR-TAF:

METAR-TAF

Airports :

Fremont Municipal Airport

Fremont, Nebraska, United States

latitude: 41-27N, longitude: 096-31W, elevation: 1243 ft

Current weather observation

The report was made 34 minutes ago, at 06:55 UTC
Wind 18 mph from the West/Northwest with gusts up to 30 mph
Temperature 70°F
Humidity 78%
Pressure 30.11 in. Hg
Visibility: 10 miles
Clear sky
light drizzle

METAR: KFET 110655Z AUTO 30016G26KT 10SM -DZ CLR 21/17 A3011 RMK AO2 LTG DSNT NE THRU SW T02110174

Time: 02:29 (07:29 UTC)


TAF: missing

Weather observations and forecasts of more than 4000 airports (METAR and TAF reports).

The available stations are represented by yellow and red dots on the map.

Hover mouse over dot to see the name of the station.

Then click to see weather observations and forecasts.

To change the map : click on the green buttons with a black cross to zoom in, on the green button with a dash to zoom out, or on the green arrows for adjacent maps.


METAR-TAF: